Bard, New Mexico
Current Conditions -  °F | °C
As of 11:53 AM on Friday 24 Oct 2014 (Local Time) from KTCC Reporting Station
Clear Clear  
Wind Chill: 76°   Ceiling: Unl
Heat Index: 76°   Visibility: 10mi
Dew Point: 38°   Wind: 0mph
Humidity: 25%   Direction: NA
Pressure: 30.18"   Gusts: NA
Location:  35.13°N, 103.25°W
Report Text: KTCC 241753Z AUTO 00000KT 10SM CLR 24/03 A3018 RMK AO2 SLP171 T02440033 10244 20067 58006
Loading
Personal Weather Stations






























Interactive Weather Map
Tropical Storm Tracking
New forecast layout! Learn more

10-Day Weather Forecast

Advertisements
Track Severe Weather on mobile